createdAt,value
2022-08-19T00:00:00.000Z,0.0
2022-08-19T00:02:00.000Z,0.0
2022-08-19T00:04:00.000Z,0.0
2022-08-19T00:06:00.000Z,0.0
2022-08-19T00:08:00.000Z,0.0
2022-08-19T00:10:00.000Z,0.0
2022-08-19T00:12:00.000Z,0.0
2022-08-19T00:14:00.000Z,0.0
2022-08-19T00:16:00.000Z,0.0
2022-08-19T00:18:00.000Z,0.0
2022-08-19T00:20:00.000Z,0.0
2022-08-19T00:22:00.000Z,0.0
2022-08-19T00:24:00.000Z,0.0
2022-08-19T00:26:00.000Z,0.0
2022-08-19T00:28:00.000Z,0.0
2022-08-19T00:30:00.000Z,0.0
2022-08-19T00:32:00.000Z,0.0
2022-08-19T00:34:00.000Z,0.0
2022-08-19T00:36:00.000Z,0.0
2022-08-19T00:38:00.000Z,0.0
2022-08-19T00:40:00.000Z,0.0
2022-08-19T00:42:00.000Z,0.0
2022-08-19T00:44:00.000Z,0.0
2022-08-19T00:46:00.000Z,0.0
2022-08-19T00:48:00.000Z,0.0
2022-08-19T00:50:00.000Z,0.0
2022-08-19T00:52:00.000Z,0.0
2022-08-19T00:54:00.000Z,0.0
2022-08-19T00:56:00.000Z,0.0
2022-08-19T00:58:00.000Z,0.0
2022-08-19T01:00:00.000Z,0.0
2022-08-19T01:02:00.000Z,0.0
2022-08-19T01:04:00.000Z,0.0
2022-08-19T01:06:00.000Z,0.0
2022-08-19T01:08:00.000Z,0.0
2022-08-19T01:10:00.000Z,0.0
2022-08-19T01:12:00.000Z,0.0
2022-08-19T01:14:00.000Z,0.0
2022-08-19T01:16:00.000Z,0.0
2022-08-19T01:18:00.000Z,0.0
2022-08-19T01:20:00.000Z,0.0
2022-08-19T01:22:00.000Z,0.0
2022-08-19T01:24:00.000Z,0.0
2022-08-19T01:26:00.000Z,0.0
2022-08-19T01:28:00.000Z,0.0
2022-08-19T01:30:00.000Z,0.0
2022-08-19T01:32:00.000Z,0.0
2022-08-19T01:34:00.000Z,0.0
2022-08-19T01:36:00.000Z,0.0
2022-08-19T01:38:00.000Z,0.0
2022-08-19T01:40:00.000Z,0.0
2022-08-19T01:42:00.000Z,0.0
2022-08-19T01:44:00.000Z,0.0
2022-08-19T01:46:00.000Z,0.0
2022-08-19T01:48:00.000Z,0.0
2022-08-19T01:50:00.000Z,0.0
2022-08-19T01:52:00.000Z,0.0
2022-08-19T01:54:00.000Z,0.0
2022-08-19T01:56:00.000Z,0.0
2022-08-19T01:58:00.000Z,0.0
2022-08-19T02:00:00.000Z,0.0
2022-08-19T02:02:00.000Z,0.0
2022-08-19T02:04:00.000Z,0.0
2022-08-19T02:06:00.000Z,0.0
2022-08-19T02:08:00.000Z,0.0
2022-08-19T02:10:00.000Z,0.0
2022-08-19T02:12:00.000Z,0.0
2022-08-19T02:14:00.000Z,0.0
2022-08-19T02:16:00.000Z,0.0
2022-08-19T02:18:00.000Z,0.0
2022-08-19T02:20:00.000Z,0.0
2022-08-19T02:22:00.000Z,0.0
2022-08-19T02:24:00.000Z,0.0
2022-08-19T02:26:00.000Z,0.0
2022-08-19T02:28:00.000Z,0.0
2022-08-19T02:30:00.000Z,0.0
2022-08-19T02:32:00.000Z,0.0
2022-08-19T02:34:00.000Z,0.0
2022-08-19T02:36:00.000Z,0.0
2022-08-19T02:38:00.000Z,0.0
2022-08-19T02:40:00.000Z,0.0
2022-08-19T02:42:00.000Z,0.0
2022-08-19T02:44:00.000Z,0.0
2022-08-19T02:46:00.000Z,0.0
2022-08-19T02:48:00.000Z,0.0
2022-08-19T02:50:00.000Z,0.0
2022-08-19T02:52:00.000Z,0.0
2022-08-19T02:54:00.000Z,0.0
2022-08-19T02:56:00.000Z,0.0
2022-08-19T02:58:00.000Z,0.0
2022-08-19T03:00:00.000Z,0.0
2022-08-19T03:02:00.000Z,0.0
2022-08-19T03:04:00.000Z,0.0
2022-08-19T03:06:00.000Z,0.0
2022-08-19T03:08:00.000Z,0.0
2022-08-19T03:10:00.000Z,0.0
2022-08-19T03:12:00.000Z,0.0
2022-08-19T03:14:00.000Z,0.0
2022-08-19T03:16:00.000Z,0.0
2022-08-19T03:18:00.000Z,0.0
2022-08-19T03:20:00.000Z,0.0
2022-08-19T03:22:00.000Z,0.0
2022-08-19T03:24:00.000Z,0.0
2022-08-19T03:26:00.000Z,0.0
2022-08-19T03:28:00.000Z,0.0
2022-08-19T03:30:00.000Z,0.0
2022-08-19T03:32:00.000Z,0.0
2022-08-19T03:34:00.000Z,0.0
2022-08-19T03:36:00.000Z,0.0
2022-08-19T03:38:00.000Z,0.0
2022-08-19T03:40:00.000Z,0.0
2022-08-19T03:42:00.000Z,0.0
2022-08-19T03:44:00.000Z,0.0
2022-08-19T03:46:00.000Z,0.0
2022-08-19T03:48:00.000Z,0.0
2022-08-19T03:50:00.000Z,0.0
2022-08-19T03:52:00.000Z,0.0
2022-08-19T03:54:00.000Z,0.55
2022-08-19T03:56:00.000Z,0.79
2022-08-19T03:58:00.000Z,1.02
2022-08-19T04:00:00.000Z,1.18
2022-08-19T04:02:00.000Z,1.42
2022-08-19T04:04:00.000Z,1.58
2022-08-19T04:06:00.000Z,1.89
2022-08-19T04:08:00.000Z,2.21
2022-08-19T04:10:00.000Z,2.44
2022-08-19T04:12:00.000Z,2.68
2022-08-19T04:14:00.000Z,3.16
2022-08-19T04:16:00.000Z,3.55
2022-08-19T04:18:00.000Z,4.1
2022-08-19T04:20:00.000Z,4.66
2022-08-19T04:22:00.000Z,5.21
2022-08-19T04:24:00.000Z,5.76
2022-08-19T04:26:00.000Z,6.24
2022-08-19T04:28:00.000Z,6.71
2022-08-19T04:30:00.000Z,7.5
2022-08-19T04:32:00.000Z,8.45
2022-08-19T04:34:00.000Z,9.79
2022-08-19T04:36:00.000Z,11.06
2022-08-19T04:38:00.000Z,12.56
2022-08-19T04:40:00.000Z,13.9
2022-08-19T04:42:00.000Z,15.4
2022-08-19T04:44:00.000Z,17.14
2022-08-19T04:46:00.000Z,18.96
2022-08-19T04:48:00.000Z,19.75
2022-08-19T04:50:00.000Z,19.9
2022-08-19T04:52:00.000Z,19.82
2022-08-19T04:54:00.000Z,19.59
2022-08-19T04:56:00.000Z,17.93
2022-08-19T04:58:00.000Z,15.72
2022-08-19T05:00:00.000Z,13.9
2022-08-19T05:02:00.000Z,13.74
2022-08-19T05:04:00.000Z,13.35
2022-08-19T05:06:00.000Z,13.35
2022-08-19T05:08:00.000Z,13.58
2022-08-19T05:10:00.000Z,14.93
2022-08-19T05:12:00.000Z,17.06
2022-08-19T05:14:00.000Z,17.77
2022-08-19T05:16:00.000Z,18.88
2022-08-19T05:18:00.000Z,19.67
2022-08-19T05:20:00.000Z,20.06
2022-08-19T05:22:00.000Z,24.96
2022-08-19T05:24:00.000Z,29.78
2022-08-19T05:26:00.000Z,33.18
2022-08-19T05:28:00.000Z,38.07
2022-08-19T05:30:00.000Z,42.97
2022-08-19T05:32:00.000Z,45.34
2022-08-19T05:34:00.000Z,51.19
2022-08-19T05:36:00.000Z,55.37
2022-08-19T05:38:00.000Z,60.19
2022-08-19T05:40:00.000Z,64.78
2022-08-19T05:42:00.000Z,71.89
2022-08-19T05:44:00.000Z,75.28
2022-08-19T05:46:00.000Z,76.63
2022-08-19T05:48:00.000Z,81.37
2022-08-19T05:50:00.000Z,79.15
2022-08-19T05:52:00.000Z,72.52
2022-08-19T05:54:00.000Z,63.2
2022-08-19T05:56:00.000Z,63.04
2022-08-19T05:58:00.000Z,65.88
2022-08-19T06:00:00.000Z,65.8
2022-08-19T06:02:00.000Z,66.67
2022-08-19T06:04:00.000Z,66.51
2022-08-19T06:06:00.000Z,62.17
2022-08-19T06:08:00.000Z,63.12
2022-08-19T06:10:00.000Z,63.59
2022-08-19T06:12:00.000Z,65.33
2022-08-19T06:14:00.000Z,68.57
2022-08-19T06:16:00.000Z,69.99
2022-08-19T06:18:00.000Z,72.6
2022-08-19T06:20:00.000Z,73.55
2022-08-19T06:22:00.000Z,71.73
2022-08-19T06:24:00.000Z,73.07
2022-08-19T06:26:00.000Z,65.57
2022-08-19T06:28:00.000Z,75.28
2022-08-19T06:30:00.000Z,75.28
2022-08-19T06:32:00.000Z,84.37
2022-08-19T06:34:00.000Z,85.47
2022-08-19T06:36:00.000Z,94.95
2022-08-19T06:38:00.000Z,93.85
2022-08-19T06:40:00.000Z,98.11
2022-08-19T06:42:00.000Z,96.77
2022-08-19T06:44:00.000Z,88.95
2022-08-19T06:46:00.000Z,92.11
2022-08-19T06:48:00.000Z,94.48
2022-08-19T06:50:00.000Z,99.06
2022-08-19T06:52:00.000Z,92.03
2022-08-19T06:54:00.000Z,104.59
2022-08-19T06:56:00.000Z,95.98
2022-08-19T06:58:00.000Z,94.32
2022-08-19T07:00:00.000Z,84.45
2022-08-19T07:02:00.000Z,75.99
2022-08-19T07:04:00.000Z,73.86
2022-08-19T07:06:00.000Z,75.99
2022-08-19T07:08:00.000Z,79.71
2022-08-19T07:10:00.000Z,76.15
2022-08-19T07:12:00.000Z,78.05
2022-08-19T07:14:00.000Z,80.18
2022-08-19T07:16:00.000Z,82.16
2022-08-19T07:18:00.000Z,79.08
2022-08-19T07:20:00.000Z,82.31
2022-08-19T07:22:00.000Z,78.84
2022-08-19T07:24:00.000Z,75.52
2022-08-19T07:26:00.000Z,80.5
2022-08-19T07:28:00.000Z,68.73
2022-08-19T07:30:00.000Z,65.57
2022-08-19T07:32:00.000Z,76.86
2022-08-19T07:34:00.000Z,73.78
2022-08-19T07:36:00.000Z,72.52
2022-08-19T07:38:00.000Z,73.78
2022-08-19T07:40:00.000Z,64.46
2022-08-19T07:42:00.000Z,74.26
2022-08-19T07:44:00.000Z,73.39
2022-08-19T07:46:00.000Z,78.21
2022-08-19T07:48:00.000Z,80.66
2022-08-19T07:50:00.000Z,65.09
2022-08-19T07:52:00.000Z,53.32
2022-08-19T07:54:00.000Z,55.14
2022-08-19T07:56:00.000Z,52.45
2022-08-19T07:58:00.000Z,51.66
2022-08-19T08:00:00.000Z,50.48
2022-08-19T08:02:00.000Z,66.04
2022-08-19T08:04:00.000Z,67.15
2022-08-19T08:06:00.000Z,61.22
2022-08-19T08:08:00.000Z,59.72
2022-08-19T08:10:00.000Z,59.4
2022-08-19T08:12:00.000Z,75.68
2022-08-19T08:14:00.000Z,72.68
2022-08-19T08:16:00.000Z,63.59
2022-08-19T08:18:00.000Z,61.3
2022-08-19T08:20:00.000Z,58.61
2022-08-19T08:22:00.000Z,59.4
2022-08-19T08:26:00.000Z,68.88
2022-08-19T08:28:00.000Z,66.44
2022-08-19T08:30:00.000Z,70.54
2022-08-19T08:32:00.000Z,73.86
2022-08-19T08:34:00.000Z,70.31
2022-08-19T08:36:00.000Z,58.06
2022-08-19T08:38:00.000Z,55.85
2022-08-19T08:40:00.000Z,49.69
2022-08-19T08:42:00.000Z,43.05
2022-08-19T08:44:00.000Z,43.05
2022-08-19T08:46:00.000Z,43.52
2022-08-19T08:48:00.000Z,45.42
2022-08-19T08:50:00.000Z,48.19
2022-08-19T08:52:00.000Z,50.24
2022-08-19T08:54:00.000Z,50.63
2022-08-19T08:56:00.000Z,48.82
2022-08-19T08:58:00.000Z,56.09
2022-08-19T09:00:00.000Z,65.41
2022-08-19T09:02:00.000Z,64.93
2022-08-19T09:04:00.000Z,62.01
2022-08-19T09:06:00.000Z,56.4
2022-08-19T09:08:00.000Z,59.17
2022-08-19T09:10:00.000Z,59.09
2022-08-19T09:12:00.000Z,63.91
2022-08-19T09:14:00.000Z,63.59
2022-08-19T09:16:00.000Z,63.67
2022-08-19T09:18:00.000Z,65.25
2022-08-19T09:20:00.000Z,69.6
2022-08-19T09:22:00.000Z,65.8
2022-08-19T09:24:00.000Z,61.7
2022-08-19T09:26:00.000Z,64.46
2022-08-19T09:28:00.000Z,65.72
2022-08-19T09:30:00.000Z,63.91
2022-08-19T09:32:00.000Z,65.41
2022-08-19T09:34:00.000Z,65.88
2022-08-19T09:36:00.000Z,73.78
2022-08-19T09:38:00.000Z,79.31
2022-08-19T09:40:00.000Z,83.58
2022-08-19T09:42:00.000Z,87.53
2022-08-19T09:44:00.000Z,93.85
2022-08-19T09:46:00.000Z,97.8
2022-08-19T09:48:00.000Z,107.04
2022-08-19T09:50:00.000Z,110.12
2022-08-19T09:52:00.000Z,110.52
2022-08-19T09:54:00.000Z,109.89
2022-08-19T09:56:00.000Z,108.54
2022-08-19T09:58:00.000Z,124.5
2022-08-19T10:00:00.000Z,152.23
2022-08-19T10:02:00.000Z,178.38
2022-08-19T10:04:00.000Z,193.31
2022-08-19T10:06:00.000Z,187.94
2022-08-19T10:08:00.000Z,202.71
2022-08-19T10:10:00.000Z,193.31
2022-08-19T10:12:00.000Z,181.38
2022-08-19T10:14:00.000Z,151.36
2022-08-19T10:16:00.000Z,131.45
2022-08-19T10:18:00.000Z,130.27
2022-08-19T10:20:00.000Z,142.04
2022-08-19T10:22:00.000Z,156.02
2022-08-19T10:24:00.000Z,174.83
2022-08-19T10:26:00.000Z,162.03
2022-08-19T10:28:00.000Z,152.78
2022-08-19T10:30:00.000Z,158.0
2022-08-19T10:32:00.000Z,195.68
2022-08-19T10:34:00.000Z,229.18
2022-08-19T10:36:00.000Z,220.72
2022-08-19T10:38:00.000Z,211.4
2022-08-19T10:40:00.000Z,187.94
2022-08-19T10:42:00.000Z,181.62
2022-08-19T10:44:00.000Z,186.52
2022-08-19T10:46:00.000Z,187.15
2022-08-19T10:48:00.000Z,173.96
2022-08-19T10:50:00.000Z,165.34
2022-08-19T10:52:00.000Z,150.26
2022-08-19T10:54:00.000Z,156.02
2022-08-19T10:56:00.000Z,178.46
2022-08-19T10:58:00.000Z,200.58
2022-08-19T11:00:00.000Z,226.89
2022-08-19T11:02:00.000Z,234.0
2022-08-19T11:04:00.000Z,216.06
2022-08-19T11:06:00.000Z,216.38
2022-08-19T11:08:00.000Z,230.44
2022-08-19T11:10:00.000Z,252.96
2022-08-19T11:12:00.000Z,253.35
2022-08-19T11:14:00.000Z,244.9
2022-08-19T11:16:00.000Z,226.65
2022-08-19T11:18:00.000Z,198.37
2022-08-19T11:20:00.000Z,193.79
2022-08-19T11:22:00.000Z,212.75
2022-08-19T11:24:00.000Z,226.26
2022-08-19T11:26:00.000Z,233.92
2022-08-19T11:28:00.000Z,245.69
2022-08-19T11:30:00.000Z,239.21
2022-08-19T11:32:00.000Z,234.0
2022-08-19T11:34:00.000Z,240.24
2022-08-19T11:36:00.000Z,253.35
2022-08-19T11:38:00.000Z,261.25
2022-08-19T11:40:00.000Z,232.81
2022-08-19T11:42:00.000Z,210.38
2022-08-19T11:44:00.000Z,191.02
2022-08-19T11:46:00.000Z,169.53
2022-08-19T11:48:00.000Z,147.41
2022-08-19T11:50:00.000Z,141.01
2022-08-19T11:52:00.000Z,154.92
2022-08-19T11:54:00.000Z,163.53
2022-08-19T11:56:00.000Z,163.37
2022-08-19T11:58:00.000Z,169.45
2022-08-19T12:00:00.000Z,180.04
2022-08-19T12:02:00.000Z,203.58
2022-08-19T12:04:00.000Z,299.09
2022-08-19T12:06:00.000Z,383.7
2022-08-19T12:08:00.000Z,402.59
2022-08-19T12:10:00.000Z,339.94
2022-08-19T12:12:00.000Z,283.14
2022-08-19T12:14:00.000Z,279.82
2022-08-19T12:16:00.000Z,305.89
2022-08-19T12:18:00.000Z,328.72
2022-08-19T12:20:00.000Z,695.13
2022-08-19T12:22:00.000Z,471.08
2022-08-19T12:24:00.000Z,400.45
2022-08-19T12:26:00.000Z,348.71
2022-08-19T12:28:00.000Z,320.35
2022-08-19T12:30:00.000Z,269.39
2022-08-19T12:32:00.000Z,227.91
2022-08-19T12:34:00.000Z,235.18
2022-08-19T12:36:00.000Z,284.01
2022-08-19T12:38:00.000Z,306.28
2022-08-19T12:40:00.000Z,365.85
2022-08-19T12:42:00.000Z,524.33
2022-08-19T12:44:00.000Z,407.41
2022-08-19T12:46:00.000Z,440.19
2022-08-19T12:48:00.000Z,285.11
2022-08-19T12:50:00.000Z,271.05
2022-08-19T12:52:00.000Z,304.7
2022-08-19T12:54:00.000Z,386.07
2022-08-19T12:56:00.000Z,408.99
2022-08-19T12:58:00.000Z,347.36
2022-08-19T13:00:00.000Z,373.83
2022-08-19T13:02:00.000Z,304.15
2022-08-19T13:04:00.000Z,223.89
2022-08-19T13:06:00.000Z,199.47
2022-08-19T13:08:00.000Z,148.6
2022-08-19T13:10:00.000Z,141.64
2022-08-19T13:12:00.000Z,143.07
2022-08-19T13:14:00.000Z,154.84
2022-08-19T13:16:00.000Z,165.34
2022-08-19T13:18:00.000Z,167.4
2022-08-19T13:20:00.000Z,172.06
2022-08-19T13:22:00.000Z,166.45
2022-08-19T13:24:00.000Z,186.36
2022-08-19T13:26:00.000Z,222.15
2022-08-19T13:28:00.000Z,272.39
2022-08-19T13:30:00.000Z,278.55
2022-08-19T13:32:00.000Z,277.37
2022-08-19T13:34:00.000Z,240.55
2022-08-19T13:36:00.000Z,229.81
2022-08-19T13:38:00.000Z,277.61
2022-08-19T13:40:00.000Z,434.82
2022-08-19T13:42:00.000Z,287.56
2022-08-19T13:44:00.000Z,275.79
2022-08-19T13:46:00.000Z,351.71
2022-08-19T13:48:00.000Z,553.48
2022-08-19T13:50:00.000Z,372.01
2022-08-19T13:52:00.000Z,529.38
2022-08-19T13:54:00.000Z,335.51
2022-08-19T13:56:00.000Z,279.74
2022-08-19T13:58:00.000Z,227.91
2022-08-19T14:00:00.000Z,202.4
2022-08-19T14:02:00.000Z,208.4
2022-08-19T14:04:00.000Z,208.16
2022-08-19T14:06:00.000Z,215.67
2022-08-19T14:08:00.000Z,314.82
2022-08-19T14:10:00.000Z,340.18
2022-08-19T14:12:00.000Z,409.85
2022-08-19T14:14:00.000Z,496.68
2022-08-19T14:16:00.000Z,520.14
2022-08-19T14:18:00.000Z,437.43
2022-08-19T14:20:00.000Z,276.26
2022-08-19T14:22:00.000Z,266.62
2022-08-19T14:24:00.000Z,197.42
2022-08-19T14:26:00.000Z,203.74
2022-08-19T14:28:00.000Z,370.35
2022-08-19T14:30:00.000Z,444.38
2022-08-19T14:32:00.000Z,358.5
2022-08-19T14:34:00.000Z,224.2
2022-08-19T14:36:00.000Z,323.66
2022-08-19T14:38:00.000Z,192.28
2022-08-19T14:40:00.000Z,420.84
2022-08-19T14:42:00.000Z,448.8
2022-08-19T14:44:00.000Z,462.0
2022-08-19T14:46:00.000Z,476.14
2022-08-19T14:48:00.000Z,303.99
2022-08-19T14:50:00.000Z,356.69
2022-08-19T14:52:00.000Z,316.0
2022-08-19T14:54:00.000Z,456.31
2022-08-19T14:56:00.000Z,400.53
2022-08-19T14:58:00.000Z,361.82
2022-08-19T15:00:00.000Z,368.3
2022-08-19T15:02:00.000Z,386.63
2022-08-19T15:04:00.000Z,207.93
2022-08-19T15:06:00.000Z,137.93
2022-08-19T15:08:00.000Z,156.02
2022-08-19T15:10:00.000Z,202.87
2022-08-19T15:12:00.000Z,255.96
2022-08-19T15:14:00.000Z,203.42
2022-08-19T15:16:00.000Z,188.65
2022-08-19T15:18:00.000Z,190.47
2022-08-19T15:20:00.000Z,420.36
2022-08-19T15:22:00.000Z,254.3
2022-08-19T15:24:00.000Z,363.8
2022-08-19T15:26:00.000Z,229.02
2022-08-19T15:28:00.000Z,353.45
2022-08-19T15:30:00.000Z,316.79
2022-08-19T15:32:00.000Z,290.96
2022-08-19T15:34:00.000Z,274.13
2022-08-19T15:36:00.000Z,163.61
2022-08-19T15:38:00.000Z,107.91
2022-08-19T15:40:00.000Z,169.06
2022-08-19T15:42:00.000Z,274.29
2022-08-19T15:44:00.000Z,125.84
2022-08-19T15:46:00.000Z,249.88
2022-08-19T15:48:00.000Z,250.51
2022-08-19T15:50:00.000Z,247.27
2022-08-19T15:52:00.000Z,246.64
2022-08-19T15:54:00.000Z,244.66
2022-08-19T15:56:00.000Z,244.35
2022-08-19T15:58:00.000Z,239.92
2022-08-19T16:00:00.000Z,230.6
2022-08-19T16:02:00.000Z,231.63
2022-08-19T16:04:00.000Z,226.1
2022-08-19T16:06:00.000Z,220.65
2022-08-19T16:08:00.000Z,217.56
2022-08-19T16:10:00.000Z,203.98
2022-08-19T16:12:00.000Z,199.16
2022-08-19T16:14:00.000Z,193.39
2022-08-19T16:16:00.000Z,187.39
2022-08-19T16:18:00.000Z,185.49
2022-08-19T16:20:00.000Z,174.83
2022-08-19T16:22:00.000Z,163.05
2022-08-19T16:24:00.000Z,135.09
2022-08-19T16:26:00.000Z,152.47
2022-08-19T16:28:00.000Z,88.63
2022-08-19T16:30:00.000Z,173.56
2022-08-19T16:32:00.000Z,184.07
2022-08-19T16:34:00.000Z,183.2
2022-08-19T16:36:00.000Z,151.84
2022-08-19T16:38:00.000Z,94.64
2022-08-19T16:40:00.000Z,142.67
2022-08-19T16:42:00.000Z,141.64
2022-08-19T16:44:00.000Z,110.75
2022-08-19T16:46:00.000Z,100.96
2022-08-19T16:48:00.000Z,95.11
2022-08-19T16:50:00.000Z,96.22
2022-08-19T16:52:00.000Z,87.77
2022-08-19T16:54:00.000Z,91.48
2022-08-19T16:56:00.000Z,94.09
2022-08-19T16:58:00.000Z,88.71
2022-08-19T17:00:00.000Z,86.58
2022-08-19T17:02:00.000Z,80.26
2022-08-19T17:04:00.000Z,78.76
2022-08-19T17:06:00.000Z,99.22
2022-08-19T17:08:00.000Z,103.96
2022-08-19T17:10:00.000Z,102.62
2022-08-19T17:12:00.000Z,99.62
2022-08-19T17:14:00.000Z,98.35
2022-08-19T17:16:00.000Z,95.51
2022-08-19T17:18:00.000Z,92.03
2022-08-19T17:20:00.000Z,89.74
2022-08-19T17:22:00.000Z,88.0
2022-08-19T17:24:00.000Z,86.5
2022-08-19T17:26:00.000Z,86.42
2022-08-19T17:28:00.000Z,81.45
2022-08-19T17:30:00.000Z,79.87
2022-08-19T17:32:00.000Z,77.81
2022-08-19T17:34:00.000Z,76.23
2022-08-19T17:36:00.000Z,73.78
2022-08-19T17:38:00.000Z,70.86
2022-08-19T17:40:00.000Z,68.17
2022-08-19T17:42:00.000Z,64.86
2022-08-19T17:44:00.000Z,60.51
2022-08-19T17:46:00.000Z,56.56
2022-08-19T17:48:00.000Z,54.66
2022-08-19T17:50:00.000Z,50.79
2022-08-19T17:52:00.000Z,47.08
2022-08-19T17:54:00.000Z,43.76
2022-08-19T17:56:00.000Z,40.68
2022-08-19T17:58:00.000Z,37.92
2022-08-19T18:00:00.000Z,34.44
2022-08-19T18:02:00.000Z,30.81
2022-08-19T18:04:00.000Z,27.96
2022-08-19T18:06:00.000Z,25.43
2022-08-19T18:08:00.000Z,22.59
2022-08-19T18:10:00.000Z,19.59
2022-08-19T18:12:00.000Z,18.32
2022-08-19T18:14:00.000Z,16.59
2022-08-19T18:16:00.000Z,14.85
2022-08-19T18:18:00.000Z,13.5
2022-08-19T18:20:00.000Z,12.24
2022-08-19T18:22:00.000Z,10.66
2022-08-19T18:24:00.000Z,9.08
2022-08-19T18:26:00.000Z,7.5
2022-08-19T18:28:00.000Z,6.47
2022-08-19T18:30:00.000Z,5.53
2022-08-19T18:32:00.000Z,4.74
2022-08-19T18:34:00.000Z,4.02
2022-08-19T18:36:00.000Z,3.71
2022-08-19T18:38:00.000Z,3.23
2022-08-19T18:40:00.000Z,2.68
2022-08-19T18:42:00.000Z,2.21
2022-08-19T18:44:00.000Z,1.81
2022-08-19T18:46:00.000Z,1.58
2022-08-19T18:48:00.000Z,1.34
2022-08-19T18:50:00.000Z,1.1
2022-08-19T18:52:00.000Z,0.86
2022-08-19T18:54:00.000Z,0.63
2022-08-19T18:56:00.000Z,0.47
2022-08-19T18:58:00.000Z,0.31
2022-08-19T19:00:00.000Z,0.0
2022-08-19T19:02:00.000Z,0.0
2022-08-19T19:04:00.000Z,0.0
2022-08-19T19:06:00.000Z,0.0
2022-08-19T19:08:00.000Z,0.0
2022-08-19T19:10:00.000Z,0.0
2022-08-19T19:12:00.000Z,0.0
2022-08-19T19:14:00.000Z,0.0
2022-08-19T19:16:00.000Z,0.0
2022-08-19T19:18:00.000Z,0.0
2022-08-19T19:20:00.000Z,0.0
2022-08-19T19:22:00.000Z,0.0
2022-08-19T19:24:00.000Z,0.0
2022-08-19T19:26:00.000Z,0.0
2022-08-19T19:28:00.000Z,0.0
2022-08-19T19:30:00.000Z,0.0
2022-08-19T19:32:00.000Z,0.0
2022-08-19T19:34:00.000Z,0.0
2022-08-19T19:36:00.000Z,0.0
2022-08-19T19:38:00.000Z,0.0
2022-08-19T19:40:00.000Z,0.0
2022-08-19T19:42:00.000Z,0.0
2022-08-19T19:44:00.000Z,0.0
2022-08-19T19:46:00.000Z,0.0
2022-08-19T19:48:00.000Z,0.0
2022-08-19T19:52:00.000Z,0.0
2022-08-19T19:54:00.000Z,0.0
2022-08-19T19:56:00.000Z,0.0
2022-08-19T19:58:00.000Z,0.0
2022-08-19T20:00:00.000Z,0.0
2022-08-19T20:02:00.000Z,0.0
2022-08-19T20:04:00.000Z,0.0
2022-08-19T20:06:00.000Z,0.0
2022-08-19T20:08:00.000Z,0.0
2022-08-19T20:10:00.000Z,0.0
2022-08-19T20:12:00.000Z,0.0
2022-08-19T20:14:00.000Z,0.0
2022-08-19T20:16:00.000Z,0.0
2022-08-19T20:18:00.000Z,0.0
2022-08-19T20:20:00.000Z,0.0
2022-08-19T20:22:00.000Z,0.0
2022-08-19T20:24:00.000Z,0.0
2022-08-19T20:26:00.000Z,0.0
2022-08-19T20:28:00.000Z,0.0
2022-08-19T20:30:00.000Z,0.0
2022-08-19T20:32:00.000Z,0.0
2022-08-19T20:34:00.000Z,0.0
2022-08-19T20:36:00.000Z,0.0
2022-08-19T20:38:00.000Z,0.0
2022-08-19T20:40:00.000Z,0.0
2022-08-19T20:42:00.000Z,0.0
2022-08-19T20:44:00.000Z,0.0
2022-08-19T20:46:00.000Z,0.0
2022-08-19T20:48:00.000Z,0.0
2022-08-19T20:50:00.000Z,0.0
2022-08-19T20:52:00.000Z,0.0
2022-08-19T20:54:00.000Z,0.0
2022-08-19T20:56:00.000Z,0.0
2022-08-19T20:58:00.000Z,0.0
2022-08-19T21:00:00.000Z,0.0
2022-08-19T21:02:00.000Z,0.0
2022-08-19T21:04:00.000Z,0.0
2022-08-19T21:06:00.000Z,0.0
2022-08-19T21:08:00.000Z,0.0
2022-08-19T21:10:00.000Z,0.0
2022-08-19T21:12:00.000Z,0.0
2022-08-19T21:14:00.000Z,0.0
2022-08-19T21:16:00.000Z,0.0
2022-08-19T21:18:00.000Z,0.0
2022-08-19T21:20:00.000Z,0.0
2022-08-19T21:22:00.000Z,0.0
2022-08-19T21:24:00.000Z,0.0
2022-08-19T21:26:00.000Z,0.0
2022-08-19T21:28:00.000Z,0.0
2022-08-19T21:30:00.000Z,0.0
2022-08-19T21:32:00.000Z,0.0
2022-08-19T21:34:00.000Z,0.0
2022-08-19T21:36:00.000Z,0.0
2022-08-19T21:38:00.000Z,0.0
2022-08-19T21:40:00.000Z,0.0
2022-08-19T21:42:00.000Z,0.0
2022-08-19T21:44:00.000Z,0.0
2022-08-19T21:46:00.000Z,0.0
2022-08-19T21:48:00.000Z,0.0
2022-08-19T21:50:00.000Z,0.0
2022-08-19T21:52:00.000Z,0.0
2022-08-19T21:54:00.000Z,0.0
2022-08-19T21:56:00.000Z,0.0
2022-08-19T21:58:00.000Z,0.0
2022-08-19T22:00:00.000Z,0.0
2022-08-19T22:02:00.000Z,0.0
2022-08-19T22:04:00.000Z,0.0
2022-08-19T22:06:00.000Z,0.0
2022-08-19T22:08:00.000Z,0.0
2022-08-19T22:10:00.000Z,0.0
2022-08-19T22:12:00.000Z,0.0
2022-08-19T22:14:00.000Z,0.0
2022-08-19T22:16:00.000Z,0.0
2022-08-19T22:18:00.000Z,0.0
2022-08-19T22:20:00.000Z,0.0
2022-08-19T22:22:00.000Z,0.0
2022-08-19T22:24:00.000Z,0.0
2022-08-19T22:26:00.000Z,0.0
2022-08-19T22:28:00.000Z,0.0
2022-08-19T22:30:00.000Z,0.0
2022-08-19T22:32:00.000Z,0.0
2022-08-19T22:34:00.000Z,0.0
2022-08-19T22:36:00.000Z,0.0
2022-08-19T22:38:00.000Z,0.0
2022-08-19T22:40:00.000Z,0.0
2022-08-19T22:42:00.000Z,0.0
2022-08-19T22:44:00.000Z,0.0
2022-08-19T22:46:00.000Z,0.0
2022-08-19T22:48:00.000Z,0.0
2022-08-19T22:50:00.000Z,0.0
2022-08-19T22:52:00.000Z,0.0
2022-08-19T22:54:00.000Z,0.0
2022-08-19T22:56:00.000Z,0.0
2022-08-19T22:58:00.000Z,0.0
2022-08-19T23:00:00.000Z,0.0
2022-08-19T23:02:00.000Z,0.0
2022-08-19T23:04:00.000Z,0.0
2022-08-19T23:06:00.000Z,0.0
2022-08-19T23:08:00.000Z,0.0
2022-08-19T23:10:00.000Z,0.0
2022-08-19T23:12:00.000Z,0.0
2022-08-19T23:14:00.000Z,0.0
2022-08-19T23:16:00.000Z,0.0
2022-08-19T23:18:00.000Z,0.0
2022-08-19T23:20:00.000Z,0.0
2022-08-19T23:22:00.000Z,0.0
2022-08-19T23:24:00.000Z,0.0
2022-08-19T23:26:00.000Z,0.0
2022-08-19T23:28:00.000Z,0.0
2022-08-19T23:30:00.000Z,0.0
2022-08-19T23:32:00.000Z,0.0
2022-08-19T23:34:00.000Z,0.0
2022-08-19T23:36:00.000Z,0.0
2022-08-19T23:38:00.000Z,0.0
2022-08-19T23:40:00.000Z,0.0
2022-08-19T23:42:00.000Z,0.0
2022-08-19T23:44:00.000Z,0.0
2022-08-19T23:46:00.000Z,0.0
2022-08-19T23:48:00.000Z,0.0
2022-08-19T23:50:00.000Z,0.0
2022-08-19T23:52:00.000Z,0.0
2022-08-19T23:54:00.000Z,0.0
2022-08-19T23:56:00.000Z,0.0
2022-08-19T23:58:00.000Z,0.0
